createdAt,value
2022-12-05T00:02:20.267Z,14.23
2022-12-05T00:07:21.868Z,19.17
2022-12-05T00:12:23.432Z,14.43
2022-12-05T00:17:25.120Z,14.20
2022-12-05T00:22:27.130Z,16.80
2022-12-05T00:27:28.739Z,15.00
2022-12-05T00:32:30.410Z,19.40
2022-12-05T00:37:31.991Z,14.53
2022-12-05T00:42:33.567Z,15.13
2022-12-05T00:47:36.522Z,15.23
2022-12-05T00:52:38.110Z,14.70
2022-12-05T00:57:40.012Z,18.33
2022-12-05T01:02:41.569Z,14.67
2022-12-05T01:07:43.117Z,17.03
2022-12-05T01:12:45.041Z,15.43
2022-12-05T01:17:46.777Z,17.47
2022-12-05T01:22:48.354Z,18.33
2022-12-05T01:27:50.031Z,16.87
2022-12-05T01:32:51.663Z,14.60
2022-12-05T01:37:53.255Z,17.67
2022-12-05T01:42:55.021Z,17.40
2022-12-05T01:47:56.783Z,21.17
2022-12-05T01:52:58.460Z,15.27
2022-12-05T01:58:00.838Z,17.00
2022-12-05T02:03:06.836Z,18.50
2022-12-05T02:08:10.452Z,18.30
2022-12-05T02:13:35.407Z,15.23
2022-12-05T02:18:46.382Z,16.53
2022-12-05T02:23:50.694Z,15.13
2022-12-05T02:29:11.044Z,14.23
2022-12-05T02:34:41.607Z,13.53
2022-12-05T02:39:53.104Z,11.33
2022-12-05T02:44:59.432Z,12.13
2022-12-05T02:50:01.359Z,12.63
2022-12-05T02:55:03.903Z,10.30
2022-12-05T03:00:06.632Z,9.57
2022-12-05T03:05:20.976Z,12.43
2022-12-05T03:10:24.443Z,9.30
2022-12-05T03:15:31.322Z,11.03
2022-12-05T03:20:36.836Z,9.77
2022-12-05T03:25:50.439Z,11.17
2022-12-05T03:30:54.031Z,8.50
2022-12-05T03:36:07.696Z,9.17
2022-12-05T03:41:24.884Z,8.90
2022-12-05T03:46:26.470Z,8.73
2022-12-05T03:51:45.219Z,10.20
2022-12-05T03:56:54.881Z,9.80
2022-12-05T04:01:57.987Z,11.17
2022-12-05T04:07:01.483Z,9.43
2022-12-05T04:12:12.609Z,8.83
2022-12-05T04:17:32.353Z,10.27
2022-12-05T04:22:34.646Z,9.67
2022-12-05T04:27:45.757Z,10.27
2022-12-05T04:33:02.746Z,8.37
2022-12-05T04:38:09.192Z,9.27
2022-12-05T04:43:12.637Z,8.60
2022-12-05T04:48:15.851Z,8.70
2022-12-05T04:53:18.120Z,9.70
2022-12-05T04:58:22.175Z,7.50
2022-12-05T05:03:28.164Z,8.07
2022-12-05T05:08:30.215Z,8.57
2022-12-05T05:13:31.925Z,9.17
2022-12-05T05:18:33.889Z,9.60
2022-12-05T05:23:35.469Z,8.30
2022-12-05T05:28:37.067Z,9.03
2022-12-05T05:33:38.837Z,8.60
2022-12-05T05:38:43.297Z,9.20
2022-12-05T05:43:45.783Z,8.67
2022-12-05T05:48:47.983Z,8.93
2022-12-05T05:53:49.755Z,10.50
2022-12-05T05:58:56.561Z,8.77
2022-12-05T06:03:58.713Z,9.13
2022-12-05T06:09:00.470Z,7.63
2022-12-05T06:14:02.220Z,7.43
2022-12-05T06:19:03.908Z,9.33
2022-12-05T06:24:05.901Z,8.03
2022-12-05T06:29:07.502Z,8.37
2022-12-05T06:34:09.083Z,7.93
2022-12-05T06:39:10.723Z,8.50
2022-12-05T06:44:12.282Z,9.40
2022-12-05T06:49:13.870Z,9.13
2022-12-05T06:54:15.405Z,9.90
2022-12-05T06:59:17.154Z,7.73
2022-12-05T07:04:24.347Z,7.77
2022-12-05T07:09:45.030Z,8.87
2022-12-05T07:14:49.694Z,7.93
2022-12-05T07:19:52.882Z,8.63
2022-12-05T07:24:54.430Z,12.93
2022-12-05T07:29:57.001Z,8.70
2022-12-05T07:34:58.988Z,8.47
2022-12-05T07:40:00.930Z,8.30
2022-12-05T07:45:02.855Z,7.70
2022-12-05T07:50:05.098Z,7.07
2022-12-05T07:55:07.363Z,7.60
2022-12-05T08:00:09.552Z,7.23
2022-12-05T08:05:15.342Z,6.93
2022-12-05T08:10:17.083Z,16.53
2022-12-05T08:15:18.835Z,15.27
2022-12-05T08:20:20.822Z,13.20
2022-12-05T08:25:22.365Z,12.13
2022-12-05T08:30:23.891Z,11.77
2022-12-05T08:35:25.634Z,10.57
2022-12-05T08:40:27.349Z,9.37
2022-12-05T08:45:28.889Z,11.30
2022-12-05T08:50:30.473Z,12.10
2022-12-05T08:55:34.943Z,12.03
2022-12-05T09:00:36.584Z,10.77
2022-12-05T09:05:38.598Z,13.87
2022-12-05T09:10:40.332Z,15.93
2022-12-05T09:15:42.127Z,15.20
2022-12-05T09:20:44.424Z,18.93
2022-12-05T09:25:53.381Z,12.30
2022-12-05T09:30:58.965Z,12.03
2022-12-05T09:36:08.452Z,15.97
2022-12-05T09:41:47.775Z,11.53
2022-12-05T09:46:56.465Z,10.37
2022-12-05T09:51:58.661Z,12.17
2022-12-05T09:57:00.969Z,11.57
2022-12-05T10:02:18.502Z,11.80
2022-12-05T10:07:41.411Z,11.43
2022-12-05T10:13:05.188Z,14.03
2022-12-05T10:18:41.635Z,11.70
2022-12-05T10:23:57.702Z,10.30
2022-12-05T10:29:06.859Z,9.97
2022-12-05T10:34:33.745Z,9.57
2022-12-05T10:39:35.714Z,12.73
2022-12-05T10:44:37.438Z,10.30
2022-12-05T10:49:39.498Z,10.90
2022-12-05T10:54:45.503Z,10.07
2022-12-05T10:59:47.741Z,11.33
2022-12-05T11:04:51.382Z,10.40
2022-12-05T11:09:53.790Z,11.20
2022-12-05T11:15:21.611Z,10.90
2022-12-05T11:20:23.081Z,9.13
2022-12-05T11:25:35.877Z,10.83
2022-12-05T11:30:37.520Z,9.67
2022-12-05T11:35:39.146Z,10.03
2022-12-05T11:40:49.864Z,9.40
2022-12-05T11:46:02.076Z,8.03
2022-12-05T11:51:30.803Z,10.33
2022-12-05T11:56:52.364Z,7.67
2022-12-05T12:02:18.966Z,7.77
2022-12-05T12:08:05.947Z,7.67
2022-12-05T12:13:26.175Z,6.77
2022-12-05T12:19:09.992Z,6.27
2022-12-05T12:24:27.512Z,6.47
2022-12-05T12:29:44.076Z,6.53
2022-12-05T12:35:17.626Z,6.60
2022-12-05T12:40:28.033Z,6.50
2022-12-05T12:45:38.503Z,8.63
2022-12-05T12:50:44.021Z,8.13
2022-12-05T12:55:57.338Z,8.43
2022-12-05T13:01:34.179Z,8.20
2022-12-05T13:06:46.369Z,8.23
2022-12-05T13:11:50.042Z,7.30
2022-12-05T13:16:54.383Z,7.10
2022-12-05T13:21:57.641Z,7.90
2022-12-05T13:27:05.685Z,7.73
2022-12-05T13:32:24.994Z,7.90
2022-12-05T13:37:48.608Z,7.30
2022-12-05T13:43:00.445Z,7.53
2022-12-05T13:48:10.776Z,8.70
2022-12-05T13:53:44.199Z,7.23
2022-12-05T13:58:48.963Z,7.77
2022-12-05T14:03:50.460Z,7.73
2022-12-05T14:08:53.829Z,8.53
2022-12-05T14:13:59.153Z,8.17
2022-12-05T14:19:23.770Z,9.20
2022-12-05T14:24:29.194Z,9.27
2022-12-05T14:29:48.975Z,8.47
2022-12-05T14:35:13.298Z,8.83
2022-12-05T14:40:23.881Z,8.07
2022-12-05T14:45:57.098Z,10.27
2022-12-05T14:50:59.671Z,9.00
2022-12-05T14:56:01.219Z,8.67
2022-12-05T15:01:09.241Z,8.57
2022-12-05T15:06:15.958Z,8.43
2022-12-05T15:11:28.406Z,8.57
2022-12-05T15:16:33.598Z,10.27
2022-12-05T15:21:43.601Z,8.57
2022-12-05T15:26:49.639Z,11.70
2022-12-05T15:32:02.211Z,10.67
2022-12-05T15:37:11.118Z,11.80
2022-12-05T15:42:16.117Z,12.03
2022-12-05T15:47:23.998Z,12.40
2022-12-05T15:52:42.668Z,11.13
2022-12-05T15:57:52.816Z,10.20
2022-12-05T16:03:07.276Z,11.90
2022-12-05T16:08:09.131Z,12.00
2022-12-05T16:13:15.906Z,12.57
2022-12-05T16:18:30.180Z,11.93
2022-12-05T16:23:37.448Z,13.97
2022-12-05T16:28:39.331Z,14.80
2022-12-05T16:33:43.689Z,16.90
2022-12-05T16:38:46.886Z,14.40
2022-12-05T16:43:49.159Z,12.43
2022-12-05T16:49:28.565Z,12.63
2022-12-05T16:54:30.287Z,12.80
2022-12-05T16:59:39.706Z,10.73
2022-12-05T17:04:41.946Z,13.10
2022-12-05T17:09:43.526Z,12.57
2022-12-05T17:14:47.082Z,12.20
2022-12-05T17:19:49.038Z,12.60
2022-12-05T17:24:50.605Z,12.77
2022-12-05T17:29:52.211Z,12.10
2022-12-05T17:34:53.852Z,11.87
2022-12-05T17:39:55.460Z,11.03
2022-12-05T17:44:57.347Z,10.37
2022-12-05T17:49:59.440Z,9.87
2022-12-05T17:55:01.682Z,10.93
2022-12-05T18:00:04.343Z,12.63
2022-12-05T18:05:10.234Z,10.23
2022-12-05T18:10:16.255Z,10.50
2022-12-05T18:15:18.529Z,12.33
2022-12-05T18:20:20.149Z,12.73
2022-12-05T18:25:22.034Z,9.07
2022-12-05T18:30:24.100Z,11.10
2022-12-05T18:35:41.549Z,9.00
2022-12-05T18:40:43.125Z,9.97
2022-12-05T18:45:46.797Z,9.67
2022-12-05T18:50:49.475Z,10.97
2022-12-05T18:56:13.637Z,10.93
2022-12-05T19:01:15.324Z,10.73
2022-12-05T19:06:20.399Z,10.80
2022-12-05T19:11:23.119Z,10.20
2022-12-05T19:16:25.670Z,10.60
2022-12-05T19:21:29.362Z,8.60
2022-12-05T19:26:31.317Z,8.30
2022-12-05T19:31:35.737Z,8.93
2022-12-05T19:36:40.456Z,9.60
2022-12-05T19:41:42.205Z,9.97
2022-12-05T19:46:43.956Z,10.20
2022-12-05T19:51:45.815Z,9.40
2022-12-05T19:56:47.612Z,9.33
2022-12-05T20:01:49.195Z,10.40
2022-12-05T20:06:50.936Z,9.57
2022-12-05T20:11:55.531Z,9.10
2022-12-05T20:16:57.497Z,9.33
2022-12-05T20:21:59.242Z,10.03
2022-12-05T20:27:03.413Z,9.77
2022-12-05T20:32:05.145Z,10.17
2022-12-05T20:37:07.413Z,9.87
2022-12-05T20:42:09.124Z,11.80
2022-12-05T20:47:10.761Z,10.23
2022-12-05T20:52:12.352Z,10.00
2022-12-05T20:57:13.949Z,9.90
2022-12-05T21:02:15.538Z,10.20
2022-12-05T21:07:17.439Z,10.63
2022-12-05T21:12:19.049Z,9.63
2022-12-05T21:17:20.661Z,10.70
2022-12-05T21:22:22.207Z,12.03
2022-12-05T21:27:23.783Z,11.73
2022-12-05T21:32:25.395Z,11.37
2022-12-05T21:37:27.056Z,9.57
2022-12-05T21:42:28.686Z,10.83
2022-12-05T21:47:30.282Z,11.23
2022-12-05T21:52:39.278Z,10.87
2022-12-05T21:57:40.942Z,11.17
2022-12-05T22:02:42.543Z,10.10
2022-12-05T22:07:44.187Z,9.80
2022-12-05T22:12:45.898Z,11.70
2022-12-05T22:17:47.701Z,9.70
2022-12-05T22:22:50.626Z,10.37
2022-12-05T22:27:52.142Z,10.97
2022-12-05T22:32:53.911Z,9.87
2022-12-05T22:37:56.546Z,9.07
2022-12-05T22:42:58.229Z,10.30
2022-12-05T22:48:00.378Z,9.93
2022-12-05T22:53:02.016Z,9.87
2022-12-05T22:58:03.774Z,8.73
2022-12-05T23:03:05.565Z,9.40
2022-12-05T23:08:07.564Z,8.90
2022-12-05T23:13:09.375Z,9.50
2022-12-05T23:18:10.950Z,9.30
2022-12-05T23:23:12.817Z,9.10
2022-12-05T23:28:15.459Z,8.83
2022-12-05T23:33:17.213Z,8.30
2022-12-05T23:38:19.056Z,9.23
2022-12-05T23:43:20.843Z,10.33
2022-12-05T23:48:23.024Z,11.03
2022-12-05T23:53:24.921Z,9.23
2022-12-05T23:58:26.821Z,9.00
